createdAt,value
2023-03-29T00:00:14.260Z,-2.49
2023-03-29T00:03:07.264Z,-2.47
2023-03-29T00:05:41.438Z,-2.46
2023-03-29T00:08:14.923Z,-2.47
2023-03-29T00:10:49.833Z,-2.46
2023-03-29T00:13:21.809Z,-2.48
2023-03-29T00:15:54.143Z,-2.50
2023-03-29T00:18:26.279Z,-2.54
2023-03-29T00:21:00.211Z,-2.58
2023-03-29T00:23:32.576Z,-2.60
2023-03-29T00:26:07.166Z,-2.60
2023-03-29T00:28:40.139Z,-2.63
2023-03-29T00:31:14.255Z,-2.65
2023-03-29T00:33:47.136Z,-2.63
2023-03-29T00:36:19.899Z,-2.60
2023-03-29T00:38:51.998Z,-2.53
2023-03-29T00:41:23.976Z,-2.46
2023-03-29T00:44:02.126Z,-2.44
2023-03-29T00:46:35.227Z,-2.44
2023-03-29T00:49:14.184Z,-2.44
2023-03-29T00:51:47.022Z,-2.43
2023-03-29T00:54:19.889Z,-2.40
2023-03-29T00:56:53.948Z,-2.38
2023-03-29T00:59:29.916Z,-2.45
2023-03-29T01:02:05.500Z,-2.49
2023-03-29T01:04:42.740Z,-2.55
2023-03-29T01:07:21.853Z,-2.57
2023-03-29T01:10:01.593Z,-2.59
2023-03-29T01:12:40.470Z,-2.58
2023-03-29T01:15:15.461Z,-2.58
2023-03-29T01:17:50.918Z,-2.61
2023-03-29T01:20:31.156Z,-2.67
2023-03-29T01:23:23.173Z,-2.79
2023-03-29T01:26:03.531Z,-2.87
2023-03-29T01:28:41.884Z,-2.99
2023-03-29T01:31:18.439Z,-3.04
2023-03-29T01:33:53.275Z,-3.07
2023-03-29T01:36:31.649Z,-3.13
2023-03-29T01:39:08.670Z,-3.19
2023-03-29T01:41:50.865Z,-3.20
2023-03-29T01:44:31.517Z,-3.28
2023-03-29T01:47:12.495Z,-3.29
2023-03-29T01:49:52.559Z,-3.30
2023-03-29T01:52:30.850Z,-3.35
2023-03-29T01:55:08.243Z,-3.39
2023-03-29T01:57:44.042Z,-3.42
2023-03-29T02:00:21.294Z,-3.40
2023-03-29T02:02:56.210Z,-3.33
2023-03-29T02:05:31.627Z,-3.32
2023-03-29T02:08:06.870Z,-3.35
2023-03-29T02:10:39.650Z,-3.28
2023-03-29T02:13:11.991Z,-3.30
2023-03-29T02:15:45.603Z,-3.22
2023-03-29T02:18:19.411Z,-3.21
2023-03-29T02:20:54.018Z,-3.17
2023-03-29T02:23:34.387Z,-3.07
2023-03-29T02:26:09.053Z,-3.09
2023-03-29T02:28:42.120Z,-3.09
2023-03-29T02:31:21.402Z,-3.16
2023-03-29T02:34:00.520Z,-3.30
2023-03-29T02:36:38.376Z,-3.29
2023-03-29T02:39:14.481Z,-3.28
2023-03-29T02:41:49.982Z,-3.46
2023-03-29T02:44:26.039Z,-3.64
2023-03-29T02:47:03.503Z,-3.75
2023-03-29T02:49:35.736Z,-3.68
2023-03-29T02:52:12.496Z,-3.64
2023-03-29T02:54:47.106Z,-3.69
2023-03-29T02:57:22.214Z,-3.72
2023-03-29T02:59:54.682Z,-3.79
2023-03-29T03:02:29.941Z,-3.93
2023-03-29T03:05:02.416Z,-3.98
2023-03-29T03:07:34.991Z,-4.00
2023-03-29T03:10:08.252Z,-4.06
2023-03-29T03:12:42.061Z,-3.98
2023-03-29T03:15:14.824Z,-3.97
2023-03-29T03:17:47.638Z,-3.82
2023-03-29T03:20:22.253Z,-3.65
2023-03-29T03:22:54.616Z,-3.52
2023-03-29T03:25:26.640Z,-3.49
2023-03-29T03:27:58.705Z,-3.50
2023-03-29T03:30:31.118Z,-3.50
2023-03-29T03:33:03.315Z,-3.53
2023-03-29T03:35:57.212Z,-3.63
2023-03-29T03:38:30.093Z,-3.80
2023-03-29T03:41:03.920Z,-3.98
2023-03-29T03:43:38.012Z,-4.08
2023-03-29T03:46:11.639Z,-4.12
2023-03-29T03:48:44.019Z,-4.20
2023-03-29T03:51:23.315Z,-4.16
2023-03-29T03:53:55.481Z,-4.14
2023-03-29T03:56:39.970Z,-4.13
2023-03-29T03:59:14.696Z,-4.13
2023-03-29T04:01:56.066Z,-4.21
2023-03-29T04:04:28.878Z,-4.24
2023-03-29T04:07:34.603Z,-4.26
2023-03-29T04:10:24.774Z,-4.34
2023-03-29T04:13:05.156Z,-4.28
2023-03-29T04:15:39.684Z,-4.27
2023-03-29T04:18:13.801Z,-4.32
2023-03-29T04:20:50.742Z,-4.32
2023-03-29T04:23:24.347Z,-4.38
2023-03-29T04:25:58.283Z,-4.49
2023-03-29T04:28:50.211Z,-4.49
2023-03-29T04:31:45.719Z,-4.47
2023-03-29T04:34:37.044Z,-4.44
2023-03-29T04:37:10.748Z,-4.46
2023-03-29T04:39:44.978Z,-4.40
2023-03-29T04:42:18.357Z,-4.35
2023-03-29T04:44:53.387Z,-4.23
2023-03-29T04:47:33.140Z,-4.21
2023-03-29T04:50:16.255Z,-4.20
2023-03-29T04:52:50.945Z,-4.11
2023-03-29T04:55:23.383Z,-3.99
2023-03-29T04:58:00.865Z,-3.84
2023-03-29T05:00:40.100Z,-3.81
2023-03-29T05:03:14.696Z,-3.78
2023-03-29T05:06:14.212Z,-3.78
2023-03-29T05:08:46.688Z,-3.76
2023-03-29T05:11:39.020Z,-3.75
2023-03-29T05:14:11.263Z,-3.71
2023-03-29T05:16:44.346Z,-3.65
2023-03-29T05:19:17.689Z,-3.55
2023-03-29T05:21:53.270Z,-3.49
2023-03-29T05:24:27.510Z,-3.46
2023-03-29T05:27:12.003Z,-3.34
2023-03-29T05:29:44.995Z,-3.22
2023-03-29T05:32:56.185Z,-3.13
2023-03-29T05:35:30.321Z,-3.03
2023-03-29T05:38:04.482Z,-2.93
2023-03-29T05:40:37.706Z,-2.77
2023-03-29T05:43:31.100Z,-2.56
2023-03-29T05:46:03.587Z,-2.35
2023-03-29T05:48:36.229Z,-2.20
2023-03-29T05:51:10.229Z,-2.10
2023-03-29T05:53:42.573Z,-1.96
2023-03-29T05:56:16.413Z,-1.75
2023-03-29T05:58:49.359Z,-1.61
2023-03-29T06:01:22.641Z,-1.55
2023-03-29T06:04:15.441Z,-1.43
2023-03-29T06:06:56.640Z,-1.30
2023-03-29T06:09:29.158Z,-1.21
2023-03-29T06:12:07.624Z,-1.06
2023-03-29T06:14:46.414Z,-0.91
2023-03-29T06:17:28.216Z,-0.78
2023-03-29T06:20:00.733Z,-0.65
2023-03-29T06:22:33.459Z,-0.60
2023-03-29T06:25:05.926Z,-0.42
2023-03-29T06:27:38.736Z,-0.35
2023-03-29T06:30:14.636Z,-0.24
2023-03-29T06:32:50.651Z,-0.07
2023-03-29T06:35:45.391Z,0.06
2023-03-29T06:38:21.022Z,0.24
2023-03-29T06:41:12.081Z,0.42
2023-03-29T06:44:05.224Z,0.58
2023-03-29T06:46:40.913Z,0.77
2023-03-29T06:49:13.956Z,0.95
2023-03-29T06:52:00.182Z,1.12
2023-03-29T06:54:33.733Z,1.24
2023-03-29T06:57:07.995Z,1.37
2023-03-29T06:59:40.262Z,1.49
2023-03-29T07:02:25.917Z,1.62
2023-03-29T07:05:01.728Z,1.74
2023-03-29T07:07:53.617Z,1.85
2023-03-29T07:10:42.061Z,2.06
2023-03-29T07:13:33.259Z,2.27
2023-03-29T07:16:12.767Z,2.36
2023-03-29T07:18:53.754Z,2.55
2023-03-29T07:21:58.956Z,2.65
2023-03-29T07:24:40.119Z,2.73
2023-03-29T07:27:12.956Z,2.79
2023-03-29T07:29:45.089Z,3.00
2023-03-29T07:32:17.547Z,3.17
2023-03-29T07:34:49.770Z,3.34
2023-03-29T07:37:37.876Z,3.47
2023-03-29T07:40:16.380Z,3.56
2023-03-29T07:43:11.804Z,3.74
2023-03-29T07:45:45.120Z,3.98
2023-03-29T07:48:18.560Z,4.16
2023-03-29T07:50:54.456Z,4.35
2023-03-29T07:53:30.814Z,4.44
2023-03-29T07:56:04.708Z,4.57
2023-03-29T07:58:55.857Z,4.57
2023-03-29T08:01:28.401Z,4.68
2023-03-29T08:04:18.278Z,4.74
2023-03-29T08:07:21.442Z,4.86
2023-03-29T08:10:15.445Z,4.93
2023-03-29T08:13:14.215Z,5.12
2023-03-29T08:16:13.140Z,5.26
2023-03-29T08:18:50.467Z,5.33
2023-03-29T08:21:23.571Z,5.48
2023-03-29T08:23:56.340Z,5.63
2023-03-29T08:26:39.835Z,5.72
2023-03-29T08:29:12.715Z,5.82
2023-03-29T08:31:45.694Z,6.02
2023-03-29T08:34:17.865Z,6.24
2023-03-29T08:37:03.362Z,6.36
2023-03-29T08:39:43.066Z,6.48
2023-03-29T08:42:58.831Z,6.50
2023-03-29T08:45:44.124Z,6.55
2023-03-29T08:48:23.561Z,6.50
2023-03-29T08:50:59.295Z,6.47
2023-03-29T08:53:35.087Z,6.50
2023-03-29T08:56:19.920Z,6.56
2023-03-29T08:59:25.238Z,6.71
2023-03-29T09:02:01.516Z,6.88
2023-03-29T09:04:37.817Z,6.96
2023-03-29T09:07:35.298Z,7.15
2023-03-29T09:10:11.105Z,7.27
2023-03-29T09:13:00.063Z,7.39
2023-03-29T09:15:43.165Z,7.57
2023-03-29T09:18:58.545Z,7.86
2023-03-29T09:21:42.719Z,7.91
2023-03-29T09:24:34.961Z,7.97
2023-03-29T09:27:23.147Z,7.96
2023-03-29T09:30:10.946Z,8.01
2023-03-29T09:33:02.069Z,8.12
2023-03-29T09:35:49.295Z,8.20
2023-03-29T09:38:23.834Z,8.27
2023-03-29T09:40:58.471Z,8.26
2023-03-29T09:43:37.327Z,8.30
2023-03-29T09:46:18.561Z,8.36
2023-03-29T09:48:53.674Z,8.45
2023-03-29T09:51:32.239Z,8.57
2023-03-29T09:54:04.834Z,8.71
2023-03-29T09:56:57.010Z,8.87
2023-03-29T09:59:29.533Z,8.97
2023-03-29T10:02:11.376Z,9.17
2023-03-29T10:04:44.676Z,9.34
2023-03-29T10:07:20.825Z,9.38
2023-03-29T10:09:59.745Z,9.63
2023-03-29T10:12:34.310Z,9.90
2023-03-29T10:15:11.727Z,10.14
2023-03-29T10:17:49.117Z,10.32
2023-03-29T10:20:22.523Z,10.49
2023-03-29T10:22:59.425Z,10.71
2023-03-29T10:25:33.832Z,10.80
2023-03-29T10:28:13.148Z,10.89
2023-03-29T10:30:47.610Z,11.06
2023-03-29T10:33:23.166Z,11.23
2023-03-29T10:35:56.642Z,11.31
2023-03-29T10:38:31.568Z,11.35
2023-03-29T10:41:11.787Z,11.39
2023-03-29T10:43:49.572Z,11.44
2023-03-29T10:46:28.764Z,11.65
2023-03-29T10:49:06.364Z,11.89
2023-03-29T10:51:39.150Z,11.98
2023-03-29T10:54:15.931Z,12.24
2023-03-29T10:56:52.562Z,12.38
2023-03-29T10:59:31.220Z,12.54
2023-03-29T11:02:27.256Z,12.76
2023-03-29T11:05:10.691Z,12.61
2023-03-29T11:07:54.012Z,12.42
2023-03-29T11:10:38.587Z,12.35
2023-03-29T11:13:22.397Z,12.41
2023-03-29T11:16:05.568Z,12.42
2023-03-29T11:18:57.890Z,12.39
2023-03-29T11:21:39.865Z,12.29
2023-03-29T11:24:30.745Z,12.05
2023-03-29T11:27:24.884Z,12.14
2023-03-29T11:30:11.049Z,12.17
2023-03-29T11:32:54.728Z,12.26
2023-03-29T11:35:43.476Z,12.28
2023-03-29T11:38:25.794Z,12.34
2023-03-29T11:41:03.600Z,12.37
2023-03-29T11:43:42.977Z,12.30
2023-03-29T11:46:20.347Z,12.48
2023-03-29T11:48:58.155Z,12.49
2023-03-29T11:51:35.613Z,12.48
2023-03-29T11:54:18.863Z,12.61
2023-03-29T11:56:57.440Z,12.85
2023-03-29T11:59:35.326Z,13.02
2023-03-29T12:02:19.834Z,13.25
2023-03-29T12:04:57.193Z,13.47
2023-03-29T12:07:33.875Z,13.80
2023-03-29T12:10:11.125Z,14.12
2023-03-29T12:12:52.800Z,14.13
2023-03-29T12:15:27.983Z,14.25
2023-03-29T12:18:08.899Z,14.34
2023-03-29T12:20:42.743Z,14.51
2023-03-29T12:23:18.950Z,14.68
2023-03-29T12:26:02.551Z,14.89
2023-03-29T12:29:13.550Z,15.45
2023-03-29T12:31:54.714Z,16.06
2023-03-29T12:34:50.062Z,16.07
2023-03-29T12:38:07.368Z,15.99
2023-03-29T12:41:02.160Z,15.33
2023-03-29T12:44:02.166Z,14.63
2023-03-29T12:46:59.650Z,14.12
2023-03-29T12:49:35.606Z,14.35
2023-03-29T12:52:24.838Z,14.70
2023-03-29T12:54:59.907Z,14.93
2023-03-29T12:57:44.728Z,15.00
2023-03-29T13:00:27.612Z,16.13
2023-03-29T13:03:22.820Z,17.95
2023-03-29T13:06:05.277Z,19.26
2023-03-29T13:08:40.778Z,20.35
2023-03-29T13:11:27.632Z,20.82
2023-03-29T13:14:01.586Z,21.50
2023-03-29T13:16:36.129Z,21.78
2023-03-29T13:19:28.723Z,22.16
2023-03-29T13:22:18.876Z,22.70
2023-03-29T13:25:06.375Z,23.13
2023-03-29T13:27:51.205Z,23.60
2023-03-29T13:30:33.701Z,23.66
2023-03-29T13:33:35.545Z,24.11
2023-03-29T13:36:16.166Z,24.11
2023-03-29T13:38:51.303Z,24.57
2023-03-29T13:41:47.028Z,24.70
2023-03-29T13:44:36.137Z,24.99
2023-03-29T13:47:28.661Z,25.20
2023-03-29T13:50:06.675Z,25.06
2023-03-29T13:52:42.603Z,24.86
2023-03-29T13:55:21.139Z,25.32
2023-03-29T13:57:57.787Z,25.32
2023-03-29T14:00:37.027Z,25.39
2023-03-29T14:03:14.170Z,24.90
2023-03-29T14:05:53.555Z,24.91
2023-03-29T14:08:30.401Z,24.82
2023-03-29T14:11:07.457Z,24.68
2023-03-29T14:13:40.370Z,24.94
2023-03-29T14:16:14.868Z,25.05
2023-03-29T14:18:51.373Z,24.96
2023-03-29T14:21:24.128Z,25.07
2023-03-29T14:24:01.698Z,24.92
2023-03-29T14:26:36.125Z,24.67
2023-03-29T14:29:12.137Z,24.77
2023-03-29T14:31:45.695Z,25.08
2023-03-29T14:34:19.585Z,25.08
2023-03-29T14:36:54.383Z,25.12
2023-03-29T14:39:27.444Z,25.23
2023-03-29T14:41:59.755Z,24.83
2023-03-29T14:44:34.928Z,24.30
2023-03-29T14:47:05.570Z,23.72
2023-03-29T14:49:38.004Z,23.38
2023-03-29T14:52:11.161Z,23.73
2023-03-29T14:54:47.971Z,23.43
2023-03-29T14:57:24.405Z,23.22
2023-03-29T15:00:00.766Z,23.24
2023-03-29T15:02:35.004Z,23.29
2023-03-29T15:05:25.027Z,23.16
2023-03-29T15:07:57.845Z,22.02
2023-03-29T15:10:32.837Z,21.80
2023-03-29T15:13:08.071Z,21.52
2023-03-29T15:15:41.118Z,20.87
2023-03-29T15:18:18.082Z,20.01
2023-03-29T15:20:51.819Z,19.74
2023-03-29T15:23:26.746Z,19.68
2023-03-29T15:26:08.772Z,18.76
2023-03-29T15:28:55.736Z,17.14
2023-03-29T15:31:35.070Z,15.63
2023-03-29T15:34:09.606Z,14.42
2023-03-29T15:36:45.360Z,13.63
2023-03-29T15:39:19.646Z,12.84
2023-03-29T15:41:54.063Z,12.21
2023-03-29T15:44:33.337Z,11.57
2023-03-29T15:47:10.444Z,11.09
2023-03-29T15:49:42.812Z,10.70
2023-03-29T15:52:17.493Z,10.48
2023-03-29T15:54:49.841Z,10.25
2023-03-29T15:57:22.188Z,10.02
2023-03-29T15:59:54.442Z,9.87
2023-03-29T16:02:28.235Z,9.76
2023-03-29T16:05:02.058Z,9.65
2023-03-29T16:07:34.078Z,9.59
2023-03-29T16:10:07.337Z,9.44
2023-03-29T16:12:39.501Z,9.36
2023-03-29T16:15:18.766Z,9.26
2023-03-29T16:17:51.168Z,9.16
2023-03-29T16:20:23.415Z,9.12
2023-03-29T16:22:55.475Z,9.08
2023-03-29T16:25:28.980Z,9.04
2023-03-29T16:28:01.743Z,8.93
2023-03-29T16:30:33.952Z,8.86
2023-03-29T16:33:08.749Z,8.83
2023-03-29T16:35:42.371Z,8.83
2023-03-29T16:38:14.627Z,8.79
2023-03-29T16:40:46.880Z,8.80
2023-03-29T16:43:20.038Z,8.77
2023-03-29T16:45:52.151Z,8.72
2023-03-29T16:48:25.312Z,8.67
2023-03-29T16:50:57.748Z,8.57
2023-03-29T16:53:30.477Z,8.50
2023-03-29T16:56:03.155Z,8.45
2023-03-29T16:58:35.784Z,8.42
2023-03-29T17:01:13.408Z,8.35
2023-03-29T17:03:46.647Z,8.30
2023-03-29T17:06:19.017Z,8.21
2023-03-29T17:08:51.890Z,8.14
2023-03-29T17:11:24.229Z,8.05
2023-03-29T17:13:56.642Z,7.94
2023-03-29T17:16:29.582Z,7.84
2023-03-29T17:19:02.553Z,7.72
2023-03-29T17:21:34.990Z,7.58
2023-03-29T17:24:07.589Z,7.47
2023-03-29T17:26:40.074Z,7.32
2023-03-29T17:29:12.558Z,7.21
2023-03-29T17:31:48.237Z,7.11
2023-03-29T17:34:21.466Z,7.01
2023-03-29T17:36:54.537Z,6.86
2023-03-29T17:39:27.827Z,6.76
2023-03-29T17:42:03.050Z,6.64
2023-03-29T17:44:35.182Z,6.54
2023-03-29T17:47:08.421Z,6.46
2023-03-29T17:49:40.628Z,6.38
2023-03-29T17:52:13.327Z,6.30
2023-03-29T17:54:45.525Z,6.22
2023-03-29T17:57:17.979Z,6.17
2023-03-29T17:59:50.417Z,6.10
2023-03-29T18:02:24.924Z,6.04
2023-03-29T18:04:57.454Z,5.97
2023-03-29T18:07:30.341Z,5.91
2023-03-29T18:10:02.730Z,5.87
2023-03-29T18:12:35.454Z,5.85
2023-03-29T18:15:10.636Z,5.82
2023-03-29T18:17:44.972Z,5.82
2023-03-29T18:20:17.847Z,5.82
2023-03-29T18:22:50.577Z,5.86
2023-03-29T18:25:24.264Z,5.93
2023-03-29T18:27:58.924Z,5.99
2023-03-29T18:30:34.331Z,6.05
2023-03-29T18:33:08.599Z,6.10
2023-03-29T18:35:41.529Z,6.15
2023-03-29T18:38:14.597Z,6.19
2023-03-29T18:40:47.430Z,6.22
2023-03-29T18:43:20.320Z,6.23
2023-03-29T18:45:53.046Z,6.21
2023-03-29T18:48:26.604Z,6.20
2023-03-29T18:51:01.914Z,6.18
2023-03-29T18:53:36.036Z,6.20
2023-03-29T18:56:11.351Z,6.20
2023-03-29T18:58:44.085Z,6.19
2023-03-29T19:01:18.949Z,6.18
2023-03-29T19:03:52.239Z,6.16
2023-03-29T19:06:25.078Z,6.15
2023-03-29T19:08:58.396Z,6.11
2023-03-29T19:11:33.379Z,6.07
2023-03-29T19:14:08.524Z,6.03
2023-03-29T19:16:42.835Z,5.96
2023-03-29T19:19:15.684Z,5.89
2023-03-29T19:21:48.983Z,5.83
2023-03-29T19:24:22.231Z,5.77
2023-03-29T19:26:54.684Z,5.76
2023-03-29T19:29:27.953Z,5.74
2023-03-29T19:32:01.981Z,5.74
2023-03-29T19:34:34.667Z,5.70
2023-03-29T19:37:07.056Z,5.69
2023-03-29T19:39:41.215Z,5.67
2023-03-29T19:42:13.455Z,5.66
2023-03-29T19:44:45.747Z,5.66
2023-03-29T19:47:18.086Z,5.67
2023-03-29T19:49:50.372Z,5.71
2023-03-29T19:52:24.135Z,5.75
2023-03-29T19:54:56.682Z,5.79
2023-03-29T19:57:28.956Z,5.84
2023-03-29T20:00:01.551Z,5.85
2023-03-29T20:02:34.271Z,5.89
2023-03-29T20:05:08.539Z,5.94
2023-03-29T20:07:41.399Z,5.97
2023-03-29T20:10:14.431Z,6.00
2023-03-29T20:12:47.685Z,6.05
2023-03-29T20:15:20.840Z,6.09
2023-03-29T20:17:54.484Z,6.10
2023-03-29T20:20:30.016Z,6.11
2023-03-29T20:23:05.289Z,6.11
2023-03-29T20:25:38.835Z,6.13
2023-03-29T20:28:13.042Z,6.13
2023-03-29T20:30:45.841Z,6.11
2023-03-29T20:33:18.454Z,6.10
2023-03-29T20:35:51.759Z,6.10
2023-03-29T20:38:24.141Z,6.09
2023-03-29T20:40:56.962Z,6.10
2023-03-29T20:43:30.072Z,6.11
2023-03-29T20:46:02.294Z,6.10
2023-03-29T20:48:38.423Z,6.12
2023-03-29T20:51:10.311Z,6.13
2023-03-29T20:53:43.677Z,6.12
2023-03-29T20:56:16.415Z,6.12
2023-03-29T20:58:48.536Z,6.10
2023-03-29T21:01:22.002Z,6.07
2023-03-29T21:03:54.458Z,6.06
2023-03-29T21:06:27.299Z,6.06
2023-03-29T21:09:00.146Z,6.06
2023-03-29T21:11:33.589Z,6.07
2023-03-29T21:14:06.171Z,6.07
2023-03-29T21:16:42.641Z,6.06
2023-03-29T21:19:15.571Z,6.05
2023-03-29T21:21:52.328Z,6.05
2023-03-29T21:24:24.801Z,6.03
2023-03-29T21:26:57.242Z,6.01
2023-03-29T21:29:29.823Z,6.01
2023-03-29T21:32:02.495Z,5.97
2023-03-29T21:34:35.032Z,5.95
2023-03-29T21:37:07.634Z,5.93
2023-03-29T21:39:40.160Z,5.93
2023-03-29T21:42:12.585Z,5.92
2023-03-29T21:44:45.079Z,5.90
2023-03-29T21:47:17.558Z,5.89
2023-03-29T21:49:50.109Z,5.90
2023-03-29T21:52:23.072Z,5.90
2023-03-29T21:54:55.653Z,5.93
2023-03-29T21:57:28.100Z,5.93
2023-03-29T22:00:00.529Z,5.93
2023-03-29T22:02:33.133Z,5.94
2023-03-29T22:05:06.908Z,5.96
2023-03-29T22:07:45.727Z,5.96
2023-03-29T22:10:22.836Z,5.96
2023-03-29T22:12:55.387Z,5.95
2023-03-29T22:15:30.155Z,5.97
2023-03-29T22:18:02.628Z,5.97
2023-03-29T22:20:35.796Z,5.97
2023-03-29T22:23:08.408Z,5.97
2023-03-29T22:25:41.146Z,5.95
2023-03-29T22:28:13.779Z,5.95
2023-03-29T22:30:46.303Z,5.95
2023-03-29T22:33:18.778Z,5.95
2023-03-29T22:35:51.151Z,5.93
2023-03-29T22:38:23.521Z,5.94
2023-03-29T22:40:56.517Z,5.94
2023-03-29T22:43:28.920Z,5.94
2023-03-29T22:46:01.331Z,5.94
2023-03-29T22:48:34.242Z,5.94
2023-03-29T22:51:07.144Z,5.95
2023-03-29T22:53:40.345Z,5.96
2023-03-29T22:56:13.413Z,5.96
2023-03-29T22:58:46.393Z,5.96
2023-03-29T23:01:18.834Z,5.97
2023-03-29T23:03:51.977Z,5.93
2023-03-29T23:06:24.461Z,5.90
2023-03-29T23:08:57.221Z,5.86
2023-03-29T23:11:29.636Z,5.82
2023-03-29T23:14:04.160Z,5.80
2023-03-29T23:16:37.111Z,5.78
2023-03-29T23:19:09.484Z,5.76
2023-03-29T23:21:41.841Z,5.74
2023-03-29T23:24:18.863Z,5.72
2023-03-29T23:26:52.024Z,5.70
2023-03-29T23:29:26.536Z,5.69
2023-03-29T23:31:59.801Z,5.69
2023-03-29T23:34:32.271Z,5.69
2023-03-29T23:37:04.898Z,5.69
2023-03-29T23:39:37.393Z,5.69
2023-03-29T23:42:09.790Z,5.68
2023-03-29T23:44:42.168Z,5.66
2023-03-29T23:47:14.469Z,5.64
2023-03-29T23:49:46.910Z,5.62
2023-03-29T23:52:19.281Z,5.59
2023-03-29T23:54:52.692Z,5.57
2023-03-29T23:57:26.951Z,5.55
